KABY/ABY METAR and TAF weather

Enter ICAO airport designator
Station Type Date Time Source
KABY METAR 2021/03/04 23:53 UTC NOAA

KABY 042353Z 00000KT 10SM CLR 17/06 A3001 RMK AO2 SLP161 T01670061 10244 20167 53000


Station Type Date Time Source
KABY Decoded METAR 2021/03/04 23:53 UTC NOAA

ALBANY SOUTHWEST GEORGIA, GA, United States (KABY) 31-32N 084-12W 58M
Mar 04, 2021 - 06:53 PM EST / 2021.03.04 2353 UTC
Wind: Calm:0
Visibility: 10 mile(s):0
Sky conditions: clear
Temperature: 62.1 F (16.7 C)
Dew Point: 43.0 F (6.1 C)
Relative Humidity: 49%
Pressure (altimeter): 30.01 in. Hg (1016 hPa)
Pressure tendency: 0.00 inches (0.0 hPa) higher than three hours ago
ob: KABY 042353Z 00000KT 10SM CLR 17/06 A3001 RMK AO2 SLP161 T01670061 10244 20167 53000
cycle: 0

Station Type Date Time Source
KABY TAF 2021/03/04 18:22 UTC NOAA

TAF KABY 041720Z 0418/0518 36005KT P6SM SKC

Example: see airport list